Time;durP1;ratioP1;P1;durP2;ratioP2;P2;SDS_P1;SDS_P2;PMS_P1;PMS_P2;Temp;Humidity;BMP_temperature;BMP_pressure;BME280_temperature;BME280_humidity;BME280_pressure;Samples;Min_cycle;Max_cycle;Signal;HPM_P1;HPM_P2
2021/12/08 00:02:15;;;;;;;6.30;1.27;;;4.80;99.90;;;;;;5071191;28;20078;-74
2021/12/08 00:04:41;;;;;;;5.63;1.25;;;4.80;99.90;;;;;;5072338;28;20070;-74
2021/12/08 00:07:08;;;;;;;12.73;1.63;;;4.80;99.90;;;;;;5072664;28;20040;-73
2021/12/08 00:09:48;;;;;;;7.00;1.40;;;4.80;99.90;;;;;;5070395;28;20060;-73
2021/12/08 00:14:59;;;;;;;5.30;1.20;;;4.80;99.90;;;;;;5071146;28;20063;-72
2021/12/08 00:17:25;;;;;;;8.68;1.42;;;4.80;99.90;;;;;;5070970;28;20372;-73
2021/12/08 00:19:51;;;;;;;5.03;1.60;;;4.80;99.90;;;;;;5070043;28;20100;-74
2021/12/08 00:22:17;;;;;;;11.18;1.70;;;4.80;99.90;;;;;;5069994;28;20111;-73
2021/12/08 00:24:44;;;;;;;6.07;1.67;;;4.80;99.90;;;;;;5070204;28;20497;-74
2021/12/08 00:27:11;;;;;;;7.07;1.55;;;4.80;99.90;;;;;;5070769;28;20040;-75
2021/12/08 00:29:37;;;;;;;7.30;1.50;;;4.80;99.90;;;;;;5070225;28;20033;-74
2021/12/08 00:32:03;;;;;;;6.05;1.30;;;4.80;99.90;;;;;;5071131;28;20056;-73
2021/12/08 00:34:31;;;;;;;8.27;1.33;;;4.70;99.90;;;;;;5070809;28;20032;-76
2021/12/08 00:37:00;;;;;;;6.20;1.25;;;4.80;99.90;;;;;;5071740;28;20032;-74
2021/12/08 00:39:26;;;;;;;7.72;1.50;;;4.80;99.90;;;;;;5074375;28;20044;-75
2021/12/08 00:41:51;;;;;;;8.70;1.90;;;4.80;99.90;;;;;;5073366;28;20074;-76
2021/12/08 00:44:17;;;;;;;7.32;1.60;;;4.80;99.90;;;;;;5074934;28;20021;-77
2021/12/08 00:46:44;;;;;;;6.63;1.70;;;4.70;99.90;;;;;;5074557;28;20451;-77
2021/12/08 00:49:11;;;;;;;6.63;1.25;;;4.70;99.90;;;;;;5075184;28;20159;-74
2021/12/08 00:51:37;;;;;;;6.70;1.60;;;4.70;99.90;;;;;;5074161;28;20036;-74
2021/12/08 00:54:04;;;;;;;4.50;1.25;;;4.60;99.90;;;;;;5075066;28;20025;-73
2021/12/08 00:56:29;;;;;;;8.30;1.50;;;4.60;99.90;;;;;;5073180;28;20490;-76
2021/12/08 00:58:55;;;;;;;5.10;1.13;;;4.70;99.90;;;;;;5074331;28;20016;-75
2021/12/08 01:01:22;;;;;;;5.03;1.50;;;4.60;99.90;;;;;;5073821;28;20094;-75
2021/12/08 01:03:49;;;;;;;3.75;1.13;;;4.60;99.90;;;;;;5072576;28;20033;-75
2021/12/08 01:06:17;;;;;;;6.72;1.08;;;4.60;99.90;;;;;;5074644;28;20039;-75
2021/12/08 01:08:44;;;;;;;3.88;1.15;;;4.70;99.90;;;;;;5073780;28;20039;-74
2021/12/08 01:11:15;;;;;;;4.35;0.90;;;4.60;99.90;;;;;;5074894;28;20025;-74
2021/12/08 01:13:42;;;;;;;6.30;1.17;;;4.60;99.90;;;;;;5073408;28;20020;-74
2021/12/08 01:16:08;;;;;;;7.40;1.10;;;4.60;99.90;;;;;;5074254;28;20024;-74
2021/12/08 01:18:34;;;;;;;5.38;1.35;;;4.60;99.90;;;;;;5073782;28;20532;-77
2021/12/08 01:21:03;;;;;;;8.27;1.30;;;4.60;99.90;;;;;;5074152;28;20027;-75
2021/12/08 01:23:29;;;;;;;6.50;0.90;;;4.60;99.90;;;;;;5078146;28;20035;-76
2021/12/08 01:25:55;;;;;;;4.50;1.35;;;4.60;99.90;;;;;;5079751;28;20204;-77
2021/12/08 01:28:22;;;;;;;6.30;1.63;;;4.60;99.90;;;;;;5075093;28;20364;-76
2021/12/08 01:30:51;;;;;;;4.45;0.95;;;4.60;99.90;;;;;;5074176;28;20115;-75
2021/12/08 01:33:17;;;;;;;7.20;1.35;;;4.60;99.90;;;;;;5074343;28;20039;-76
2021/12/08 01:35:43;;;;;;;3.92;1.42;;;4.60;99.90;;;;;;5073249;28;20486;-76
2021/12/08 01:38:09;;;;;;;2.45;0.80;;;4.60;99.90;;;;;;5073717;28;20459;-77
2021/12/08 01:40:35;;;;;;;6.38;1.27;;;4.60;99.90;;;;;;5073516;28;20031;-79
2021/12/08 01:43:03;;;;;;;4.25;0.70;;;4.60;99.90;;;;;;5072663;28;20029;-78
2021/12/08 01:48:19;;;;;;;5.47;1.02;;;4.60;99.90;;;;;;5073640;28;20127;-77
2021/12/08 01:50:52;;;;;;;4.22;1.13;;;4.50;99.90;;;;;;5073242;28;20017;-79
2021/12/08 01:53:19;;;;;;;6.70;1.15;;;4.50;99.90;;;;;;5073910;28;20021;-78
2021/12/08 01:55:46;;;;;;;3.78;0.75;;;4.50;99.90;;;;;;5072791;28;20390;-77
2021/12/08 01:58:12;;;;;;;4.90;1.20;;;4.40;99.90;;;;;;5073776;28;20048;-78
2021/12/08 02:00:47;;;;;;;6.07;1.30;;;4.40;99.90;;;;;;5072955;28;20055;-77
2021/12/08 02:03:14;;;;;;;3.30;0.70;;;4.40;99.90;;;;;;5072742;28;20429;-78
2021/12/08 02:05:40;;;;;;;4.03;1.10;;;4.40;99.90;;;;;;5071588;28;20077;-79
2021/12/08 02:08:06;;;;;;;2.97;0.88;;;4.40;99.90;;;;;;5072205;28;20025;-79
2021/12/08 02:10:32;;;;;;;3.13;0.70;;;4.40;99.90;;;;;;5072233;28;20024;-78
2021/12/08 02:12:58;;;;;;;3.33;0.73;;;4.40;99.90;;;;;;5072612;28;20576;-78
2021/12/08 02:15:24;;;;;;;0.98;0.30;;;4.30;99.90;;;;;;5073545;28;20432;-78
2021/12/08 02:17:53;;;;;;;1.95;0.50;;;4.20;99.90;;;;;;5072367;28;20108;-78
2021/12/08 02:20:22;;;;;;;1.83;0.40;;;4.20;99.90;;;;;;5071829;28;20050;-81
2021/12/08 02:22:48;;;;;;;1.83;0.45;;;4.10;99.90;;;;;;5072579;28;20036;-81
2021/12/08 02:25:19;;;;;;;2.13;0.40;;;4.10;99.90;;;;;;5071977;28;20359;-80
2021/12/08 02:27:45;;;;;;;1.85;0.50;;;4.00;99.90;;;;;;5072494;28;20111;-81
2021/12/08 02:30:26;;;;;;;1.92;0.43;;;3.90;99.90;;;;;;5073169;28;20025;-80
2021/12/08 02:49:36;;;;;;;2.17;0.30;;;3.70;99.90;;;;;;5040372;28;20041;-80
2021/12/08 02:52:04;;;;;;;1.40;0.40;;;3.70;99.90;;;;;;5051780;28;20365;-80
2021/12/08 02:54:45;;;;;;;1.63;0.32;;;3.70;99.90;;;;;;5052848;28;20029;-80
2021/12/08 02:57:12;;;;;;;0.45;0.20;;;3.70;99.90;;;;;;5051480;28;20095;-79
2021/12/08 02:59:39;;;;;;;2.45;0.28;;;3.60;99.90;;;;;;5051609;28;20071;-80
2021/12/08 03:02:05;;;;;;;1.58;0.35;;;3.50;99.90;;;;;;5052104;28;20040;-80
2021/12/08 03:04:31;;;;;;;4.05;0.70;;;3.40;99.90;;;;;;5052983;28;20025;-79
2021/12/08 03:06:58;;;;;;;2.38;0.43;;;3.40;99.90;;;;;;5066993;28;20068;-80
2021/12/08 03:09:24;;;;;;;4.47;0.70;;;3.40;99.90;;;;;;5052134;28;20024;-80
2021/12/08 03:11:52;;;;;;;3.05;0.80;;;3.40;99.90;;;;;;5066905;28;20075;-79
2021/12/08 03:14:18;;;;;;;4.32;0.88;;;3.50;99.90;;;;;;5052465;28;20029;-80
2021/12/08 03:16:48;;;;;;;3.35;0.60;;;3.50;99.90;;;;;;5066887;28;20477;-81
2021/12/08 03:19:14;;;;;;;2.40;0.50;;;3.50;99.90;;;;;;5051740;28;20036;-80
2021/12/08 03:21:40;;;;;;;2.35;0.63;;;3.60;99.90;;;;;;5052340;28;20032;-81
2021/12/08 03:24:29;;;;;;;2.55;0.80;;;3.60;99.90;;;;;;5067422;28;20033;-80
2021/12/08 03:32:15;;;;;;;4.68;0.60;;;3.60;99.90;;;;;;5052236;28;20029;-80
2021/12/08 03:34:53;;;;;;;1.52;0.70;;;3.60;99.90;;;;;;5050953;28;20029;-85
2021/12/08 03:37:25;;;;;;;6.07;1.00;;;3.50;99.90;;;;;;5067724;28;20029;-79
2021/12/08 03:39:51;;;;;;;4.28;0.77;;;3.60;99.90;;;;;;5066726;28;20044;-79
2021/12/08 03:42:20;;;;;;;2.13;0.90;;;3.60;99.90;;;;;;5051922;28;20032;-80
2021/12/08 03:44:47;;;;;;;3.17;0.90;;;3.60;99.90;;;;;;5051266;28;20055;-79
2021/12/08 03:47:17;;;;;;;5.57;0.90;;;3.60;99.90;;;;;;5052092;28;20528;-80
2021/12/08 03:49:47;;;;;;;3.03;0.70;;;3.60;99.90;;;;;;5066801;28;20033;-82
2021/12/08 03:52:13;;;;;;;2.30;0.63;;;3.70;99.90;;;;;;5067347;28;20025;-79
2021/12/08 03:54:39;;;;;;;5.10;0.80;;;3.70;99.90;;;;;;5051886;28;20029;-78
2021/12/08 03:57:05;;;;;;;3.35;0.73;;;3.70;99.90;;;;;;5050968;28;20707;-79
2021/12/08 03:59:32;;;;;;;3.03;0.60;;;3.80;99.90;;;;;;5058016;28;20033;-80
2021/12/08 04:01:58;;;;;;;7.15;0.88;;;3.80;99.90;;;;;;5058041;28;20033;-80
2021/12/08 04:04:28;;;;;;;2.05;0.55;;;3.80;99.90;;;;;;5051688;28;20032;-80
2021/12/08 04:06:57;;;;;;;4.43;1.05;;;3.80;99.90;;;;;;5051092;28;20033;-79
2021/12/08 04:09:35;;;;;;;3.35;0.88;;;3.80;99.90;;;;;;5051512;28;20508;-80
2021/12/08 04:12:02;;;;;;;2.25;0.90;;;3.80;99.90;;;;;;5054176;28;20108;-79
2021/12/08 04:14:34;;;;;;;7.88;0.80;;;3.70;99.90;;;;;;5055589;28;20463;-79
2021/12/08 04:17:25;;;;;;;4.93;0.82;;;3.70;99.90;;;;;;5070271;28;20029;-80
2021/12/08 04:19:53;;;;;;;6.53;0.95;;;3.80;99.90;;;;;;5066756;28;20072;-79
2021/12/08 04:22:27;;;;;;;4.55;0.85;;;3.80;99.90;;;;;;5055853;28;20040;-81
2021/12/08 04:24:54;;;;;;;6.70;0.85;;;3.80;99.90;;;;;;5070216;28;20090;-80
2021/12/08 04:27:28;;;;;;;3.88;0.65;;;3.80;99.90;;;;;;5055583;28;20033;-79
2021/12/08 04:29:55;;;;;;;4.05;0.70;;;3.90;99.90;;;;;;5070178;28;20025;-79
2021/12/08 04:32:25;;;;;;;4.65;0.80;;;3.90;99.90;;;;;;5055295;28;20108;-78
2021/12/08 04:34:55;;;;;;;4.28;1.00;;;3.90;99.90;;;;;;5054776;28;20029;-78
2021/12/08 04:37:28;;;;;;;3.13;0.73;;;3.90;99.90;;;;;;5055367;28;20029;-78
2021/12/08 04:40:14;;;;;;;8.02;0.70;;;3.90;99.90;;;;;;5069880;28;20521;-78
2021/12/08 04:45:20;;;;;;;2.78;0.77;;;3.90;99.90;;;;;;5054596;28;20116;-76
2021/12/08 04:53:32;;;;;;;4.57;1.10;;;4.00;99.90;;;;;;5054253;28;20063;-76
2021/12/08 05:07:15;;;;;;;12.07;2.05;;;4.00;99.90;;;;;;5054078;28;20159;-79
2021/12/08 05:09:44;;;;;;;18.63;3.35;;;4.00;99.90;;;;;;5054861;28;20029;-80
2021/12/08 05:12:15;;;;;;;11.50;2.10;;;4.00;99.90;;;;;;5053551;28;20046;-79
2021/12/08 05:14:43;;;;;;;18.48;2.13;;;4.00;99.90;;;;;;5054889;28;20118;-78
2021/12/08 05:17:15;;;;;;;13.98;1.98;;;4.10;99.90;;;;;;5062628;28;20043;-78
2021/12/08 05:19:44;;;;;;;9.55;1.55;;;4.10;99.90;;;;;;5057892;28;20103;-77
2021/12/08 05:22:24;;;;;;;14.38;2.00;;;4.10;99.90;;;;;;5052550;28;20021;-77
2021/12/08 05:24:54;;;;;;;8.57;1.60;;;4.10;99.90;;;;;;5053855;28;20364;-80
2021/12/08 05:27:38;;;;;;;11.73;1.98;;;4.10;99.90;;;;;;5069748;28;20086;-79
2021/12/08 05:30:23;;;;;;;5.95;1.83;;;4.10;99.90;;;;;;5053583;28;20029;-77
2021/12/08 05:32:49;;;;;;;9.27;1.70;;;4.10;99.90;;;;;;5054260;28;20028;-77
2021/12/08 05:35:17;;;;;;;9.57;1.67;;;4.10;99.90;;;;;;5054027;28;20104;-77
2021/12/08 05:37:43;;;;;;;9.40;1.60;;;4.10;99.90;;;;;;5054291;28;20029;-77
2021/12/08 05:40:17;;;;;;;9.57;1.40;;;4.10;99.90;;;;;;5052125;28;20037;-77
2021/12/08 05:42:43;;;;;;;11.63;1.73;;;4.10;99.90;;;;;;5054089;28;20044;-78
2021/12/08 05:45:13;;;;;;;13.13;2.05;;;4.10;99.90;;;;;;5053081;28;20459;-78
2021/12/08 05:47:39;;;;;;;8.60;1.27;;;4.10;99.90;;;;;;5054361;28;20463;-79
2021/12/08 05:50:07;;;;;;;7.18;1.30;;;4.00;99.90;;;;;;5054723;28;20017;-79
2021/12/08 05:52:33;;;;;;;6.35;1.20;;;4.10;99.90;;;;;;5066812;28;20086;-78
2021/12/08 05:55:00;;;;;;;8.73;1.10;;;4.00;99.90;;;;;;5073231;28;20490;-77
2021/12/08 05:57:39;;;;;;;6.85;1.30;;;4.00;99.90;;;;;;5071924;28;20055;-77
2021/12/08 06:00:08;;;;;;;8.32;1.65;;;4.00;99.90;;;;;;5072968;28;20024;-75
2021/12/08 06:02:37;;;;;;;11.15;1.80;;;4.00;99.90;;;;;;5073944;28;20051;-74
2021/12/08 06:05:06;;;;;;;8.25;1.20;;;4.00;99.90;;;;;;5072818;28;20028;-74
2021/12/08 06:07:32;;;;;;;12.15;1.48;;;4.00;99.90;;;;;;5073298;28;20033;-73
2021/12/08 06:10:01;;;;;;;11.70;1.90;;;4.10;99.90;;;;;;5072825;28;20028;-74
2021/12/08 06:12:27;;;;;;;11.32;2.05;;;4.10;99.90;;;;;;5073116;28;20032;-74
2021/12/08 06:14:55;;;;;;;11.73;3.00;;;4.10;99.90;;;;;;5073122;28;20035;-74
2021/12/08 06:17:25;;;;;;;13.60;1.83;;;4.20;99.90;;;;;;5072962;28;20032;-71
2021/12/08 06:19:52;;;;;;;14.57;1.88;;;4.20;99.90;;;;;;5055839;28;20047;-72
2021/12/08 06:22:19;;;;;;;8.70;1.33;;;4.20;99.90;;;;;;5072516;28;20539;-72
2021/12/08 06:24:47;;;;;;;11.32;1.60;;;4.20;99.90;;;;;;5073577;28;20107;-73
2021/12/08 06:27:13;;;;;;;10.02;1.48;;;4.20;99.90;;;;;;5071121;28;20922;-73
2021/12/08 06:29:41;;;;;;;10.90;1.65;;;4.20;99.90;;;;;;5071811;28;20047;-73
2021/12/08 06:32:09;;;;;;;12.43;2.05;;;4.30;99.90;;;;;;5072356;28;20039;-73
2021/12/08 06:34:37;;;;;;;13.57;1.35;;;4.30;99.90;;;;;;5072966;28;20435;-73
2021/12/08 06:37:10;;;;;;;6.10;1.77;;;4.30;99.90;;;;;;5071915;28;20411;-73
2021/12/08 06:39:41;;;;;;;5.55;1.25;;;4.20;99.90;;;;;;5073498;28;20038;-73
2021/12/08 06:42:14;;;;;;;8.30;1.40;;;4.20;99.90;;;;;;5072140;28;20036;-74
2021/12/08 06:44:43;;;;;;;7.22;1.40;;;4.20;99.90;;;;;;5072793;28;20029;-73
2021/12/08 06:47:16;;;;;;;7.40;1.40;;;4.20;99.90;;;;;;5070652;28;20447;-74
2021/12/08 06:49:42;;;;;;;;;;;4.10;99.90;;;;;;5073057;28;20556;-74
2021/12/08 06:52:22;;;;;;;12.68;1.95;;;4.20;99.90;;;;;;5071817;28;19949;-73
2021/12/08 06:54:54;;;;;;;11.13;1.88;;;4.10;99.90;;;;;;5071454;28;20024;-73
2021/12/08 06:57:28;;;;;;;9.27;2.78;;;4.10;99.90;;;;;;5070433;28;20668;-73
2021/12/08 07:00:00;;;;;;;10.30;1.80;;;4.10;99.90;;;;;;5072594;28;20028;-73
2021/12/08 07:05:30;;;;;;;13.82;2.22;;;4.10;99.90;;;;;;5075243;28;20035;-73
2021/12/08 07:08:06;;;;;;;10.77;2.35;;;4.10;99.90;;;;;;5072184;28;20107;-75
2021/12/08 07:10:38;;;;;;;9.70;2.25;;;4.00;99.90;;;;;;5072257;28;20467;-73
2021/12/08 07:13:08;;;;;;;14.70;2.93;;;4.10;99.90;;;;;;5071437;28;20174;-73
2021/12/08 07:15:57;;;;;;;14.82;2.05;;;4.10;99.90;;;;;;5072047;28;20485;-73
2021/12/08 07:18:42;;;;;;;9.00;1.80;;;4.10;99.90;;;;;;5071912;28;20032;-73
2021/12/08 07:21:11;;;;;;;12.20;1.92;;;4.10;99.90;;;;;;5071264;28;20040;-74
2021/12/08 07:23:44;;;;;;;8.90;1.75;;;4.10;99.90;;;;;;5072140;28;20066;-73
2021/12/08 07:26:16;;;;;;;11.60;1.98;;;4.20;99.90;;;;;;5071797;28;20123;-74
2021/12/08 07:28:43;;;;;;;7.60;1.92;;;4.10;99.90;;;;;;5072041;28;20021;-73
2021/12/08 07:31:35;;;;;;;10.05;1.95;;;4.10;99.90;;;;;;5071666;28;20032;-74
2021/12/08 07:34:06;;;;;;;11.17;2.27;;;4.10;99.90;;;;;;5066789;28;20047;-75
2021/12/08 07:36:42;;;;;;;10.60;2.08;;;4.20;99.90;;;;;;5072067;28;20025;-73
2021/12/08 07:39:14;;;;;;;14.70;2.55;;;4.20;99.90;;;;;;5070245;28;20028;-74
2021/12/08 07:41:42;;;;;;;6.53;2.15;;;4.10;99.90;;;;;;5072235;28;20017;-73
2021/12/08 07:44:12;;;;;;;13.90;1.95;;;4.10;99.90;;;;;;5071159;28;20024;-73
2021/12/08 07:46:46;;;;;;;10.57;1.88;;;4.10;99.90;;;;;;5071251;28;20028;-73
2021/12/08 07:49:25;;;;;;;12.88;2.38;;;4.10;99.90;;;;;;5070773;28;20437;-73
2021/12/08 07:52:06;;;;;;;13.68;2.22;;;4.10;99.90;;;;;;5071925;28;20028;-73
2021/12/08 07:54:32;;;;;;;13.77;2.33;;;4.10;99.90;;;;;;5071773;28;20108;-73
2021/12/08 07:57:01;;;;;;;12.00;2.00;;;4.10;99.90;;;;;;5071474;28;20104;-73
2021/12/08 07:59:28;;;;;;;12.18;2.20;;;4.00;99.90;;;;;;5071363;28;20053;-73
2021/12/08 08:01:57;;;;;;;16.60;2.22;;;4.00;99.90;;;;;;5071763;28;20039;-73
2021/12/08 08:04:26;;;;;;;9.60;2.05;;;4.00;99.90;;;;;;5070973;28;20021;-74
2021/12/08 08:06:57;;;;;;;15.00;2.53;;;4.00;99.90;;;;;;5071614;28;20036;-73
2021/12/08 08:09:35;;;;;;;10.40;1.83;;;4.00;99.90;;;;;;5069714;28;20354;-73
2021/12/08 08:12:03;;;;;;;13.18;2.10;;;4.00;99.90;;;;;;5071522;28;20418;-75
2021/12/08 08:14:38;;;;;;;10.50;2.33;;;4.00;99.90;;;;;;5071146;28;20467;-73
2021/12/08 08:17:07;;;;;;;18.67;2.70;;;4.10;99.90;;;;;;5070849;28;20028;-76
2021/12/08 08:19:33;;;;;;;9.25;1.52;;;4.10;99.90;;;;;;5056645;28;20467;-74
2021/12/08 08:22:06;;;;;;;13.40;1.80;;;4.10;99.90;;;;;;5072500;28;20104;-73
2021/12/08 08:24:32;;;;;;;8.00;1.80;;;4.10;99.90;;;;;;5071702;28;20028;-74
2021/12/08 08:27:00;;;;;;;10.90;1.75;;;4.10;99.90;;;;;;5071333;28;20056;-73
2021/12/08 08:29:27;;;;;;;11.60;2.20;;;4.20;99.90;;;;;;5070710;28;20063;-73
2021/12/08 08:32:00;;;;;;;9.73;1.90;;;4.20;99.90;;;;;;5071295;28;20032;-73
2021/12/08 08:34:35;;;;;;;8.52;1.92;;;4.20;99.90;;;;;;5070495;28;20028;-72
2021/12/08 08:37:05;;;;;;;10.25;1.90;;;4.20;99.90;;;;;;5071272;28;20050;-72
2021/12/08 08:39:34;;;;;;;10.60;1.50;;;4.20;99.90;;;;;;5070986;28;20071;-72
2021/12/08 08:42:06;;;;;;;10.43;2.05;;;4.20;99.90;;;;;;5071213;28;20517;-72
2021/12/08 08:44:54;;;;;;;10.10;1.90;;;4.20;99.90;;;;;;5071332;28;20024;-72
2021/12/08 08:47:34;;;;;;;12.73;2.38;;;4.20;99.90;;;;;;5066001;28;20037;-72
2021/12/08 08:50:00;;;;;;;16.73;2.70;;;4.20;99.90;;;;;;5062478;28;20024;-72
2021/12/08 08:52:37;;;;;;;10.38;1.92;;;4.20;99.90;;;;;;5069152;28;20136;-73
2021/12/08 08:55:35;;;;;;;10.13;2.15;;;4.20;99.90;;;;;;5070924;28;20028;-75
2021/12/08 08:58:03;;;;;;;11.65;1.88;;;4.20;99.90;;;;;;5072111;28;20056;-73
2021/12/08 09:00:49;;;;;;;12.93;2.58;;;4.20;99.90;;;;;;5072917;28;20032;-72
2021/12/08 09:03:24;;;;;;;9.60;2.05;;;4.20;99.90;;;;;;5074314;28;20082;-72
2021/12/08 09:05:57;;;;;;;11.70;2.33;;;4.20;99.90;;;;;;5075010;28;20529;-73
2021/12/08 09:08:26;;;;;;;12.27;2.10;;;4.20;99.90;;;;;;5073409;28;20040;-72
2021/12/08 09:11:16;;;;;;;12.88;2.67;;;4.20;99.90;;;;;;5074470;28;20035;-73
2021/12/08 09:14:16;;;;;;;17.75;3.00;;;4.30;99.90;;;;;;5074466;28;20107;-73
2021/12/08 09:17:13;;;;;;;16.92;3.00;;;4.30;99.90;;;;;;5058872;28;20044;-73
2021/12/08 09:20:08;;;;;;;17.85;2.67;;;4.30;99.90;;;;;;5069640;28;20056;-72
2021/12/08 09:22:58;;;;;;;21.25;2.53;;;4.30;99.90;;;;;;5068206;28;20040;-72
2021/12/08 09:25:36;;;;;;;16.52;2.60;;;4.40;99.90;;;;;;5073425;28;20115;-74
2021/12/08 09:28:26;;;;;;;14.07;2.78;;;4.40;99.90;;;;;;5074234;28;20028;-72
2021/12/08 09:31:23;;;;;;;13.50;3.15;;;4.50;99.90;;;;;;5076315;28;20020;-72
2021/12/08 09:33:58;;;;;;;12.07;2.80;;;4.50;99.90;;;;;;5069769;28;20028;-72
2021/12/08 09:36:46;;;;;;;234.85;27.17;;;4.60;99.90;;;;;;5075373;28;20262;-74
2021/12/08 09:39:22;;;;;;;20.92;3.00;;;4.60;99.90;;;;;;5073755;28;20078;-73
2021/12/08 09:42:11;;;;;;;13.90;2.15;;;4.70;99.90;;;;;;5073763;28;20024;-73
2021/12/08 09:44:42;;;;;;;14.15;2.30;;;4.70;99.90;;;;;;5073659;28;20033;-73
2021/12/08 09:47:09;;;;;;;16.77;3.17;;;4.70;99.90;;;;;;5072795;28;20060;-74
2021/12/08 09:49:35;;;;;;;13.63;2.53;;;4.80;99.90;;;;;;5072429;28;20514;-73
2021/12/08 09:52:05;;;;;;;21.98;3.88;;;4.80;99.90;;;;;;5073272;28;20024;-73
2021/12/08 09:54:31;;;;;;;16.90;2.88;;;4.80;99.90;;;;;;5073141;28;20083;-73
2021/12/08 09:56:59;;;;;;;16.65;3.38;;;4.80;99.90;;;;;;5075900;28;20039;-72
2021/12/08 09:59:25;;;;;;;18.67;3.42;;;4.90;99.90;;;;;;5072222;28;20053;-73
2021/12/08 10:01:52;;;;;;;18.58;3.60;;;4.90;99.90;;;;;;5071922;28;20024;-72
2021/12/08 10:04:19;;;;;;;16.15;2.90;;;5.00;99.90;;;;;;5072596;28;20072;-73
2021/12/08 10:06:49;;;;;;;19.98;3.50;;;5.00;99.90;;;;;;5074345;28;20559;-73
2021/12/08 10:09:19;;;;;;;25.50;4.00;;;5.00;99.90;;;;;;5070930;28;20048;-73
2021/12/08 10:11:46;;;;;;;18.95;3.40;;;5.00;99.90;;;;;;5071657;28;20111;-73
2021/12/08 10:14:13;;;;;;;13.77;3.47;;;5.00;99.90;;;;;;5072337;28;20486;-74
2021/12/08 10:16:40;;;;;;;20.83;3.45;;;5.00;99.90;;;;;;5072522;28;20061;-73
2021/12/08 10:19:06;;;;;;;22.25;3.20;;;5.00;99.90;;;;;;5072577;28;20024;-73
2021/12/08 10:21:37;;;;;;;19.13;3.10;;;5.00;99.90;;;;;;5072076;28;20031;-73
2021/12/08 10:24:23;;;;;;;17.08;2.55;;;5.10;99.90;;;;;;5072887;28;20104;-73
2021/12/08 10:26:51;;;;;;;25.20;3.85;;;5.00;99.90;;;;;;5072912;28;20090;-74
2021/12/08 10:29:25;;;;;;;25.05;3.90;;;5.00;99.90;;;;;;5072066;28;20024;-73
2021/12/08 10:31:53;;;;;;;12.00;3.30;;;5.10;99.90;;;;;;5071343;28;20028;-73
2021/12/08 10:34:25;;;;;;;17.98;3.78;;;5.10;99.90;;;;;;5071849;28;20055;-73
2021/12/08 10:36:56;;;;;;;24.40;3.53;;;5.20;99.90;;;;;;5072768;28;20053;-73
2021/12/08 10:39:32;;;;;;;21.05;3.55;;;5.30;99.90;;;;;;5072120;28;20039;-74
2021/12/08 10:42:06;;;;;;;28.30;4.90;;;5.50;99.90;;;;;;5071035;28;20028;-74
2021/12/08 10:44:47;;;;;;;16.33;4.22;;;5.60;99.90;;;;;;5072138;28;20086;-74
2021/12/08 10:47:19;;;;;;;15.30;3.30;;;5.60;99.90;;;;;;5071320;28;20025;-73
2021/12/08 10:55:18;;;;;;;17.23;3.10;;;5.80;99.90;;;;;;5073132;28;20059;-75
2021/12/08 10:57:50;;;;;;;16.80;3.63;;;5.80;99.90;;;;;;5071329;28;20036;-72
2021/12/08 11:00:28;;;;;;;14.50;2.85;;;5.90;99.90;;;;;;5069596;28;20032;-72
2021/12/08 11:03:09;;;;;;;22.13;3.30;;;5.90;99.90;;;;;;5071570;28;20040;-73
2021/12/08 11:05:42;;;;;;;17.95;3.15;;;5.90;99.90;;;;;;5071244;28;20108;-73
2021/12/08 11:08:20;;;;;;;16.45;3.35;;;5.90;99.90;;;;;;5071250;28;20379;-75
2021/12/08 11:11:05;;;;;;;17.40;3.00;;;5.90;99.90;;;;;;5071285;28;20082;-74
2021/12/08 11:13:36;;;;;;;18.58;3.45;;;5.90;99.90;;;;;;5070670;28;20506;-73
2021/12/08 11:16:09;;;;;;;17.52;2.83;;;5.90;99.90;;;;;;5072227;28;20090;-73
2021/12/08 11:18:39;;;;;;;14.07;2.95;;;5.90;99.90;;;;;;5077874;28;20032;-73
2021/12/08 11:21:31;;;;;;;14.13;2.50;;;6.00;99.90;;;;;;5089342;28;20024;-73
2021/12/08 11:23:59;;;;;;;12.30;3.05;;;6.00;99.90;;;;;;5088109;28;20024;-72
2021/12/08 11:26:33;;;;;;;19.08;3.13;;;6.00;99.90;;;;;;5070690;28;20028;-72
2021/12/08 11:29:04;;;;;;;19.73;3.28;;;6.00;99.90;;;;;;5071048;28;20052;-72
2021/12/08 11:31:34;;;;;;;19.92;3.90;;;6.00;99.90;;;;;;5070348;28;20042;-72
2021/12/08 11:34:04;;;;;;;23.20;3.63;;;6.10;99.90;;;;;;5071054;28;20372;-72
2021/12/08 11:36:33;;;;;;;12.30;2.35;;;6.10;99.90;;;;;;5068853;28;20071;-72
2021/12/08 11:39:12;;;;;;;19.55;3.47;;;6.10;99.90;;;;;;5071065;28;20032;-72
2021/12/08 11:41:41;;;;;;;12.88;3.03;;;6.10;99.90;;;;;;5070913;28;20067;-73
2021/12/08 11:44:11;;;;;;;12.98;2.90;;;6.20;99.90;;;;;;5079766;28;20032;-73
2021/12/08 11:46:47;;;;;;;15.20;2.63;;;6.20;99.90;;;;;;5090064;28;20028;-72
2021/12/08 11:49:12;;;;;;;12.63;3.00;;;6.20;99.90;;;;;;5086046;28;20032;-73
2021/12/08 11:51:44;;;;;;;13.63;3.33;;;6.20;99.90;;;;;;5091104;28;20088;-73
2021/12/08 11:54:25;;;;;;;14.50;2.80;;;6.20;99.90;;;;;;5089342;28;20020;-74
2021/12/08 11:56:53;;;;;;;18.60;3.17;;;6.20;99.90;;;;;;5091310;28;20036;-73
2021/12/08 11:59:19;;;;;;;17.33;3.67;;;6.20;99.90;;;;;;5090116;28;20044;-73
2021/12/08 12:01:48;;;;;;;11.35;3.25;;;6.20;99.90;;;;;;5089548;28;20485;-72
2021/12/08 12:04:13;;;;;;;13.55;2.70;;;6.20;99.90;;;;;;5090273;28;20036;-72
2021/12/08 12:06:39;;;;;;;14.40;2.70;;;6.20;99.90;;;;;;5090504;28;20031;-72
2021/12/08 12:09:09;;;;;;;13.90;2.70;;;6.20;99.90;;;;;;5094694;28;20028;-73
2021/12/08 12:11:35;;;;;;;12.52;2.80;;;6.20;99.90;;;;;;5090573;28;20028;-73
2021/12/08 12:14:02;;;;;;;16.52;3.30;;;6.20;99.90;;;;;;5078338;28;20016;-72
2021/12/08 12:16:28;;;;;;;13.75;2.90;;;6.20;99.90;;;;;;5068052;28;20033;-72
2021/12/08 12:18:58;;;;;;;15.07;2.88;;;6.20;99.90;;;;;;5070978;28;20028;-71
2021/12/08 12:21:52;;;;;;;15.10;3.08;;;6.20;99.90;;;;;;5069257;28;20075;-70
2021/12/08 12:24:37;;;;;;;13.75;3.08;;;6.20;99.90;;;;;;5069795;28;20353;-73
2021/12/08 12:27:48;;;;;;;15.80;2.78;;;6.20;99.90;;;;;;5070675;28;20055;-73
2021/12/08 12:30:45;;;;;;;12.77;2.78;;;6.20;99.90;;;;;;5066111;28;20498;-72
2021/12/08 12:33:42;;;;;;;14.00;2.45;;;6.20;99.90;;;;;;5068359;28;20036;-74
2021/12/08 12:36:19;;;;;;;17.38;2.50;;;6.20;99.90;;;;;;5074122;28;20036;-72
2021/12/08 12:38:45;;;;;;;16.70;2.72;;;6.30;99.90;;;;;;5074440;28;20031;-72
2021/12/08 12:41:27;;;;;;;10.95;2.33;;;6.30;99.90;;;;;;5073303;28;20390;-73
2021/12/08 12:44:31;;;;;;;13.35;2.75;;;6.30;99.90;;;;;;5073318;28;20025;-72
2021/12/08 12:47:14;;;;;;;19.50;2.60;;;6.40;99.90;;;;;;5074291;28;20119;-72
2021/12/08 12:49:44;;;;;;;17.88;2.55;;;6.40;99.90;;;;;;5073895;28;20029;-72
2021/12/08 12:52:12;;;;;;;13.63;2.60;;;6.40;99.90;;;;;;5056069;28;20098;-72
2021/12/08 12:54:42;;;;;;;13.07;2.30;;;6.50;99.90;;;;;;5074242;28;20024;-72
2021/12/08 12:57:09;;;;;;;10.93;2.60;;;6.50;99.90;;;;;;5073939;28;20425;-73
2021/12/08 12:59:50;;;;;;;15.80;3.00;;;6.50;99.90;;;;;;5073476;28;20040;-72
2021/12/08 13:02:52;;;;;;;11.60;2.13;;;6.50;99.90;;;;;;5072934;28;20028;-72
2021/12/08 13:05:12;;;;;;;15.65;2.78;;;6.60;99.90;;;;;;5078385;28;20036;-73
2021/12/08 13:07:54;;;;;;;14.75;2.45;;;6.50;99.90;;;;;;5087752;28;20028;-72
2021/12/08 13:10:28;;;;;;;7.40;2.37;;;6.50;99.90;;;;;;5075064;28;20040;-72
2021/12/08 13:13:09;;;;;;;11.07;2.30;;;6.60;99.90;;;;;;5075765;28;20398;-72
2021/12/08 13:15:37;;;;;;;12.50;2.60;;;6.60;99.90;;;;;;5073633;28;20143;-72
2021/12/08 13:18:11;;;;;;;17.83;2.92;;;6.60;99.90;;;;;;5088545;28;20024;-73
2021/12/08 13:20:58;;;;;;;17.33;3.20;;;6.60;99.90;;;;;;5086759;28;20021;-71
2021/12/08 13:23:27;;;;;;;11.38;2.20;;;6.60;99.90;;;;;;5071987;28;20021;-71
2021/12/08 13:28:26;;;;;;;19.23;2.40;;;6.60;99.90;;;;;;5072479;28;20535;-72
2021/12/08 13:30:54;;;;;;;13.40;2.90;;;6.50;99.90;;;;;;5073497;28;20024;-72
2021/12/08 13:33:41;;;;;;;14.77;2.75;;;6.60;99.90;;;;;;5072606;28;20387;-73
2021/12/08 13:36:22;;;;;;;14.43;2.92;;;6.50;99.90;;;;;;5072996;28;20471;-71
2021/12/08 13:38:57;;;;;;;12.20;2.40;;;6.50;99.90;;;;;;5073182;28;20040;-72
2021/12/08 13:41:29;;;;;;;12.90;2.53;;;6.50;99.90;;;;;;5071069;28;20435;-72
2021/12/08 13:43:56;;;;;;;12.70;2.15;;;6.40;99.90;;;;;;5072143;28;20060;-72
2021/12/08 13:46:36;;;;;;;11.38;2.97;;;6.30;99.90;;;;;;5071717;28;20032;-72
2021/12/08 13:49:27;;;;;;;19.23;3.15;;;6.20;99.90;;;;;;5072580;28;20036;-72
2021/12/08 13:52:08;;;;;;;10.70;2.95;;;6.20;99.90;;;;;;5072925;28;20033;-73
2021/12/08 13:54:36;;;;;;;13.45;2.58;;;6.20;99.90;;;;;;5074599;28;20033;-72
2021/12/08 13:57:25;;;;;;;14.88;2.33;;;6.20;99.90;;;;;;5071482;28;20119;-72
2021/12/08 13:59:58;;;;;;;11.90;2.78;;;6.20;99.90;;;;;;5072868;28;20051;-72
2021/12/08 14:02:41;;;;;;;13.70;3.00;;;6.20;99.90;;;;;;5076299;28;20031;-72
2021/12/08 14:05:13;;;;;;;9.18;2.38;;;6.30;99.90;;;;;;5093112;28;20035;-72
2021/12/08 14:07:42;;;;;;;9.33;2.00;;;6.30;99.90;;;;;;5092759;28;20028;-72
2021/12/08 14:10:26;;;;;;;14.55;2.70;;;6.40;99.90;;;;;;5093250;28;20276;-72
2021/12/08 14:13:04;;;;;;;17.02;3.03;;;6.50;99.90;;;;;;5093597;28;20111;-72
2021/12/08 14:15:35;;;;;;;16.08;2.97;;;6.50;99.90;;;;;;5092476;28;20089;-73